sensor_id;sensor_type;location;lat;lon;timestamp;pressure;altitude;pressure_sealevel;temperature;humidity
29879;BME280;16752;53.364;-1.488;2022-08-19T00:01:23;99848.94;;;27.76;45.21
29879;BME280;16752;53.364;-1.488;2022-08-19T00:04:00;99845.88;;;27.73;45.21
29879;BME280;16752;53.364;-1.488;2022-08-19T00:06:36;99851.50;;;27.71;45.22
29879;BME280;16752;53.364;-1.488;2022-08-19T00:09:06;99849.25;;;27.68;45.05
29879;BME280;16752;53.364;-1.488;2022-08-19T00:11:39;99849.50;;;27.66;45.40
29879;BME280;16752;53.364;-1.488;2022-08-19T00:14:10;99846.19;;;27.64;45.38
29879;BME280;16752;53.364;-1.488;2022-08-19T00:16:50;99848.72;;;27.59;45.33
29879;BME280;16752;53.364;-1.488;2022-08-19T00:19:36;99848.13;;;27.57;45.38
29879;BME280;16752;53.364;-1.488;2022-08-19T00:22:10;99855.59;;;27.55;45.34
29879;BME280;16752;53.364;-1.488;2022-08-19T00:24:51;99854.78;;;27.55;45.26
29879;BME280;16752;53.364;-1.488;2022-08-19T00:27:24;99855.16;;;27.58;45.35
29879;BME280;16752;53.364;-1.488;2022-08-19T00:29:59;99875.41;;;27.61;45.19
29879;BME280;16752;53.364;-1.488;2022-08-19T00:35:16;99887.63;;;27.38;42.52
29879;BME280;16752;53.364;-1.488;2022-08-19T00:37:54;99886.03;;;27.31;42.30
29879;BME280;16752;53.364;-1.488;2022-08-19T00:44:10;99899.03;;;27.16;40.59
29879;BME280;16752;53.364;-1.488;2022-08-19T01:02:45;99888.16;;;26.72;38.63
29879;BME280;16752;53.364;-1.488;2022-08-19T01:08:18;99899.34;;;26.69;39.29
29879;BME280;16752;53.364;-1.488;2022-08-19T01:44:37;99919.59;;;26.27;37.26
29879;BME280;16752;53.364;-1.488;2022-08-19T02:09:53;99931.09;;;25.56;37.83
29879;BME280;16752;53.364;-1.488;2022-08-19T02:53:09;99967.19;;;24.94;38.77
29879;BME280;16752;53.364;-1.488;2022-08-19T03:10:44;99981.44;;;25.02;38.15
29879;BME280;16752;53.364;-1.488;2022-08-19T03:14:02;99977.94;;;25.08;37.46
29879;BME280;16752;53.364;-1.488;2022-08-19T04:02:34;99991.59;;;24.52;38.20
29879;BME280;16752;53.364;-1.488;2022-08-19T04:14:44;99999.78;;;24.44;38.71
29879;BME280;16752;53.364;-1.488;2022-08-19T04:18:17;99994.41;;;24.44;38.95
29879;BME280;16752;53.364;-1.488;2022-08-19T04:25:21;100013.13;;;24.37;38.50
29879;BME280;16752;53.364;-1.488;2022-08-19T04:27:42;100022.81;;;24.31;38.50
29879;BME280;16752;53.364;-1.488;2022-08-19T04:37:08;100023.91;;;24.16;38.86
29879;BME280;16752;53.364;-1.488;2022-08-19T04:42:52;100026.16;;;24.12;39.37
29879;BME280;16752;53.364;-1.488;2022-08-19T04:51:34;100044.59;;;24.00;39.21
29879;BME280;16752;53.364;-1.488;2022-08-19T04:54:26;100048.28;;;23.99;39.35
29879;BME280;16752;53.364;-1.488;2022-08-19T05:01:38;100064.06;;;23.88;39.88
29879;BME280;16752;53.364;-1.488;2022-08-19T05:04:25;100062.16;;;23.82;40.24
29879;BME280;16752;53.364;-1.488;2022-08-19T05:07:04;100069.94;;;23.76;40.19
29879;BME280;16752;53.364;-1.488;2022-08-19T05:09:50;100062.47;;;23.65;40.17
29879;BME280;16752;53.364;-1.488;2022-08-19T05:12:53;100062.56;;;23.57;40.35
29879;BME280;16752;53.364;-1.488;2022-08-19T05:16:02;100062.56;;;23.57;40.85
29879;BME280;16752;53.364;-1.488;2022-08-19T05:18:54;100071.53;;;23.50;40.70
29879;BME280;16752;53.364;-1.488;2022-08-19T05:32:13;100090.81;;;23.45;40.91
29879;BME280;16752;53.364;-1.488;2022-08-19T06:06:55;100102.34;;;23.45;41.12
29879;BME280;16752;53.364;-1.488;2022-08-19T06:09:55;100106.03;;;23.44;41.05
29879;BME280;16752;53.364;-1.488;2022-08-19T06:13:09;100102.59;;;23.51;41.17
29879;BME280;16752;53.364;-1.488;2022-08-19T06:16:21;100105.78;;;23.61;41.23
29879;BME280;16752;53.364;-1.488;2022-08-19T06:19:16;100109.38;;;23.68;41.16
29879;BME280;16752;53.364;-1.488;2022-08-19T06:21:49;100106.13;;;23.72;40.36
29879;BME280;16752;53.364;-1.488;2022-08-19T06:24:24;100117.69;;;23.80;39.79
29879;BME280;16752;53.364;-1.488;2022-08-19T06:30:08;100119.72;;;23.99;39.53
29879;BME280;16752;53.364;-1.488;2022-08-19T06:32:47;100125.13;;;24.05;39.46
29879;BME280;16752;53.364;-1.488;2022-08-19T06:41:02;100126.69;;;24.21;38.98
29879;BME280;16752;53.364;-1.488;2022-08-19T06:43:40;100118.69;;;24.28;38.75
29879;BME280;16752;53.364;-1.488;2022-08-19T06:49:02;100120.63;;;24.34;38.49
29879;BME280;16752;53.364;-1.488;2022-08-19T06:51:34;100124.78;;;24.36;38.14
29879;BME280;16752;53.364;-1.488;2022-08-19T06:54:18;100124.19;;;24.41;37.97
29879;BME280;16752;53.364;-1.488;2022-08-19T06:56:57;100127.91;;;24.47;37.71
29879;BME280;16752;53.364;-1.488;2022-08-19T06:59:36;100137.47;;;24.56;37.76
29879;BME280;16752;53.364;-1.488;2022-08-19T07:05:44;100138.75;;;24.66;37.17
29879;BME280;16752;53.364;-1.488;2022-08-19T07:08:23;100138.78;;;24.73;36.76
29879;BME280;16752;53.364;-1.488;2022-08-19T07:11:15;100138.78;;;24.73;36.58
29879;BME280;16752;53.364;-1.488;2022-08-19T07:14:22;100141.94;;;24.83;36.80
29879;BME280;16752;53.364;-1.488;2022-08-19T07:20:22;100143.72;;;25.11;36.56
29879;BME280;16752;53.364;-1.488;2022-08-19T07:33:15;100153.13;;;25.54;34.62
29879;BME280;16752;53.364;-1.488;2022-08-19T07:35:44;100154.38;;;25.58;34.71
29879;BME280;16752;53.364;-1.488;2022-08-19T07:40:55;100149.91;;;25.79;34.24
29879;BME280;16752;53.364;-1.488;2022-08-19T07:43:21;100154.88;;;25.88;34.25
29879;BME280;16752;53.364;-1.488;2022-08-19T07:49:08;100154.47;;;26.11;33.62
29879;BME280;16752;53.364;-1.488;2022-08-19T07:55:05;100163.13;;;26.20;32.83
29879;BME280;16752;53.364;-1.488;2022-08-19T07:57:42;100168.72;;;26.05;33.12
29879;BME280;16752;53.364;-1.488;2022-08-19T08:00:07;100164.16;;;25.99;32.89
29879;BME280;16752;53.364;-1.488;2022-08-19T08:02:38;100177.19;;;26.15;33.03
29879;BME280;16752;53.364;-1.488;2022-08-19T08:05:23;100183.38;;;26.16;32.51
29879;BME280;16752;53.364;-1.488;2022-08-19T08:08:19;100184.63;;;26.27;32.73
29879;BME280;16752;53.364;-1.488;2022-08-19T08:11:28;100176.34;;;26.61;32.06
29879;BME280;16752;53.364;-1.488;2022-08-19T08:13:57;100179.22;;;26.73;31.72
29879;BME280;16752;53.364;-1.488;2022-08-19T08:16:37;100179.16;;;26.99;31.42
29879;BME280;16752;53.364;-1.488;2022-08-19T08:19:06;100186.56;;;27.17;31.70
29879;BME280;16752;53.364;-1.488;2022-08-19T08:21:33;100183.78;;;27.30;31.18
29879;BME280;16752;53.364;-1.488;2022-08-19T08:23:58;100187.09;;;27.32;30.90
29879;BME280;16752;53.364;-1.488;2022-08-19T08:26:33;100181.09;;;27.37;29.62
29879;BME280;16752;53.364;-1.488;2022-08-19T08:28:59;100188.81;;;27.20;29.90
29879;BME280;16752;53.364;-1.488;2022-08-19T08:31:27;100186.63;;;26.91;29.72
29879;BME280;16752;53.364;-1.488;2022-08-19T08:33:56;100186.59;;;26.97;29.95
29879;BME280;16752;53.364;-1.488;2022-08-19T08:36:22;100190.09;;;26.98;30.23
29879;BME280;16752;53.364;-1.488;2022-08-19T08:38:47;100194.44;;;26.99;30.50
29879;BME280;16752;53.364;-1.488;2022-08-19T08:41:17;100194.63;;;27.10;30.42
29879;BME280;16752;53.364;-1.488;2022-08-19T08:43:48;100180.53;;;27.22;30.31
29879;BME280;16752;53.364;-1.488;2022-08-19T08:46:30;100179.56;;;27.48;30.59
29879;BME280;16752;53.364;-1.488;2022-08-19T08:51:54;100184.16;;;28.10;28.53
29879;BME280;16752;53.364;-1.488;2022-08-19T08:54:32;100181.31;;;28.30;28.84
29879;BME280;16752;53.364;-1.488;2022-08-19T08:56:59;100183.16;;;28.54;28.92
29879;BME280;16752;53.364;-1.488;2022-08-19T09:00:03;100178.84;;;28.72;27.98
29879;BME280;16752;53.364;-1.488;2022-08-19T09:02:32;100186.06;;;28.96;27.47
29879;BME280;16752;53.364;-1.488;2022-08-19T09:05:17;100200.59;;;28.95;26.26
29879;BME280;16752;53.364;-1.488;2022-08-19T09:08:17;100191.81;;;29.00;25.87
29879;BME280;16752;53.364;-1.488;2022-08-19T09:16:51;100200.59;;;28.95;26.02
29879;BME280;16752;53.364;-1.488;2022-08-19T09:19:17;100194.59;;;29.11;26.14
29879;BME280;16752;53.364;-1.488;2022-08-19T09:24:19;100200.47;;;28.65;26.32
29879;BME280;16752;53.364;-1.488;2022-08-19T09:29:23;100199.53;;;28.96;25.38
29879;BME280;16752;53.364;-1.488;2022-08-19T09:31:50;100201.16;;;29.34;25.41
29879;BME280;16752;53.364;-1.488;2022-08-19T09:34:16;100199.88;;;29.55;24.51
29879;BME280;16752;53.364;-1.488;2022-08-19T09:36:57;100200.31;;;29.81;24.25
29879;BME280;16752;53.364;-1.488;2022-08-19T09:39:26;100191.75;;;29.73;23.67
29879;BME280;16752;53.364;-1.488;2022-08-19T09:41:58;100200.19;;;29.46;24.54
29879;BME280;16752;53.364;-1.488;2022-08-19T09:44:55;100204.84;;;29.21;24.39
29879;BME280;16752;53.364;-1.488;2022-08-19T09:47:41;100188.13;;;28.76;25.06
29879;BME280;16752;53.364;-1.488;2022-08-19T09:50:47;100191.44;;;29.14;25.52
29879;BME280;16752;53.364;-1.488;2022-08-19T09:53:13;100198.31;;;29.47;25.46
29879;BME280;16752;53.364;-1.488;2022-08-19T09:55:42;100206.50;;;29.70;24.81
29879;BME280;16752;53.364;-1.488;2022-08-19T09:58:16;100202.22;;;29.51;24.48
29879;BME280;16752;53.364;-1.488;2022-08-19T10:00:58;100202.50;;;29.43;24.67
29879;BME280;16752;53.364;-1.488;2022-08-19T10:03:25;100214.22;;;29.37;24.36
29879;BME280;16752;53.364;-1.488;2022-08-19T10:05:51;100209.78;;;29.24;25.03
29879;BME280;16752;53.364;-1.488;2022-08-19T10:08:19;100216.31;;;28.98;25.23
29879;BME280;16752;53.364;-1.488;2022-08-19T10:10:45;100208.38;;;28.60;24.55
29879;BME280;16752;53.364;-1.488;2022-08-19T10:13:11;100203.00;;;28.60;24.90
29879;BME280;16752;53.364;-1.488;2022-08-19T10:15:37;100201.19;;;28.97;25.03
29879;BME280;16752;53.364;-1.488;2022-08-19T10:20:47;100201.53;;;28.82;25.06
29879;BME280;16752;53.364;-1.488;2022-08-19T10:23:34;100199.81;;;29.25;24.87
29879;BME280;16752;53.364;-1.488;2022-08-19T10:26:06;100198.13;;;29.60;24.46
29879;BME280;16752;53.364;-1.488;2022-08-19T10:31:20;100210.59;;;29.61;22.82
29879;BME280;16752;53.364;-1.488;2022-08-19T10:36:27;100197.81;;;30.10;22.22
29879;BME280;16752;53.364;-1.488;2022-08-19T10:38:55;100210.19;;;29.88;21.80
29879;BME280;16752;53.364;-1.488;2022-08-19T10:41:54;100198.03;;;29.67;22.88
29879;BME280;16752;53.364;-1.488;2022-08-19T10:44:21;100177.91;;;29.93;22.70
29879;BME280;16752;53.364;-1.488;2022-08-19T10:47:21;100198.13;;;30.02;23.42
29879;BME280;16752;53.364;-1.488;2022-08-19T10:52:47;100193.59;;;30.14;23.28
29879;BME280;16752;53.364;-1.488;2022-08-19T10:55:20;100192.81;;;30.49;22.98
29879;BME280;16752;53.364;-1.488;2022-08-19T10:58:18;100199.19;;;30.66;22.62
29879;BME280;16752;53.364;-1.488;2022-08-19T11:00:53;100205.75;;;30.58;22.99
29879;BME280;16752;53.364;-1.488;2022-08-19T11:03:20;100198.31;;;30.54;23.47
29879;BME280;16752;53.364;-1.488;2022-08-19T11:06:07;100198.22;;;30.37;22.92
29879;BME280;16752;53.364;-1.488;2022-08-19T11:09:25;100207.44;;;30.06;23.46
29879;BME280;16752;53.364;-1.488;2022-08-19T11:11:53;100211.00;;;30.18;23.44
29879;BME280;16752;53.364;-1.488;2022-08-19T11:14:19;100201.22;;;30.05;23.75
29879;BME280;16752;53.364;-1.488;2022-08-19T11:16:50;100201.56;;;29.67;24.25
29879;BME280;16752;53.364;-1.488;2022-08-19T11:19:20;100208.00;;;29.66;24.42
29879;BME280;16752;53.364;-1.488;2022-08-19T11:21:53;100197.63;;;29.81;23.50
29879;BME280;16752;53.364;-1.488;2022-08-19T11:24:23;100192.41;;;30.10;22.13
29879;BME280;16752;53.364;-1.488;2022-08-19T11:26:50;100195.59;;;30.07;23.01
29879;BME280;16752;53.364;-1.488;2022-08-19T11:29:16;100197.97;;;29.73;22.59
29879;BME280;16752;53.364;-1.488;2022-08-19T11:34:51;100194.13;;;29.33;23.56
29879;BME280;16752;53.364;-1.488;2022-08-19T11:37:28;100188.81;;;29.74;23.65
29879;BME280;16752;53.364;-1.488;2022-08-19T11:39:54;100186.66;;;30.06;22.95
29879;BME280;16752;53.364;-1.488;2022-08-19T11:42:29;100191.53;;;30.39;23.16
29879;BME280;16752;53.364;-1.488;2022-08-19T11:45:14;100182.25;;;30.70;22.18
29879;BME280;16752;53.364;-1.488;2022-08-19T11:47:42;100181.56;;;30.63;22.07
29879;BME280;16752;53.364;-1.488;2022-08-19T11:50:19;100186.56;;;30.48;21.97
29879;BME280;16752;53.364;-1.488;2022-08-19T11:52:45;100173.41;;;30.52;22.09
29879;BME280;16752;53.364;-1.488;2022-08-19T11:55:11;100183.75;;;30.43;22.00
29879;BME280;16752;53.364;-1.488;2022-08-19T11:57:40;100193.03;;;30.24;22.61
29879;BME280;16752;53.364;-1.488;2022-08-19T12:00:35;100193.03;;;30.24;21.83
29879;BME280;16752;53.364;-1.488;2022-08-19T12:03:10;100176.94;;;30.29;22.16
29879;BME280;16752;53.364;-1.488;2022-08-19T12:05:39;100189.63;;;30.28;22.71
29879;BME280;16752;53.364;-1.488;2022-08-19T12:08:11;100200.31;;;30.23;22.93
29879;BME280;16752;53.364;-1.488;2022-08-19T12:10:39;100199.72;;;30.21;23.09
29879;BME280;16752;53.364;-1.488;2022-08-19T12:13:18;100198.78;;;30.16;23.31
29879;BME280;16752;53.364;-1.488;2022-08-19T12:15:46;100205.41;;;30.01;23.79
29879;BME280;16752;53.364;-1.488;2022-08-19T12:21:22;100205.84;;;29.87;23.38
29879;BME280;16752;53.364;-1.488;2022-08-19T12:30:57;100213.69;;;29.76;24.72
29879;BME280;16752;53.364;-1.488;2022-08-19T12:37:19;100221.28;;;29.68;24.76
29879;BME280;16752;53.364;-1.488;2022-08-19T12:39:47;100230.63;;;29.84;25.14
29879;BME280;16752;53.364;-1.488;2022-08-19T12:42:13;100232.31;;;29.66;24.71
29879;BME280;16752;53.364;-1.488;2022-08-19T12:45:05;100229.22;;;29.51;24.94
29879;BME280;16752;53.364;-1.488;2022-08-19T12:47:49;100210.41;;;29.74;25.07
29879;BME280;16752;53.364;-1.488;2022-08-19T12:50:30;100210.94;;;29.95;25.44
29879;BME280;16752;53.364;-1.488;2022-08-19T12:52:59;100210.28;;;30.11;24.47
29879;BME280;16752;53.364;-1.488;2022-08-19T12:55:28;100210.75;;;30.08;24.20
29879;BME280;16752;53.364;-1.488;2022-08-19T12:58:05;100213.00;;;30.23;23.53
29879;BME280;16752;53.364;-1.488;2022-08-19T13:00:30;100211.91;;;30.12;23.16
29879;BME280;16752;53.364;-1.488;2022-08-19T13:03:01;100212.72;;;30.01;24.38
29879;BME280;16752;53.364;-1.488;2022-08-19T13:05:29;100207.25;;;30.19;23.65
29879;BME280;16752;53.364;-1.488;2022-08-19T13:11:37;100206.44;;;30.54;23.09
29879;BME280;16752;53.364;-1.488;2022-08-19T13:14:08;100209.47;;;30.57;23.65
29879;BME280;16752;53.364;-1.488;2022-08-19T13:17:27;100219.00;;;31.07;22.63
29879;BME280;16752;53.364;-1.488;2022-08-19T13:25:33;100218.56;;;30.75;22.44
29879;BME280;16752;53.364;-1.488;2022-08-19T13:28:00;100213.19;;;30.63;22.75
29879;BME280;16752;53.364;-1.488;2022-08-19T13:33:44;100216.19;;;30.55;22.97
29879;BME280;16752;53.364;-1.488;2022-08-19T13:36:20;100214.94;;;30.81;22.15
29879;BME280;16752;53.364;-1.488;2022-08-19T13:38:45;100211.63;;;31.42;21.43
29879;BME280;16752;53.364;-1.488;2022-08-19T13:41:12;100223.19;;;31.95;21.14
29879;BME280;16752;53.364;-1.488;2022-08-19T13:43:45;100216.31;;;32.20;21.12
29879;BME280;16752;53.364;-1.488;2022-08-19T13:46:21;100210.47;;;32.12;19.92
29879;BME280;16752;53.364;-1.488;2022-08-19T13:48:47;100216.72;;;32.12;20.70
29879;BME280;16752;53.364;-1.488;2022-08-19T13:51:30;100216.28;;;32.04;20.54
29879;BME280;16752;53.364;-1.488;2022-08-19T13:53:56;100219.53;;;31.72;20.34
29879;BME280;16752;53.364;-1.488;2022-08-19T13:56:24;100220.53;;;31.54;21.15
29879;BME280;16752;53.364;-1.488;2022-08-19T14:01:48;100216.44;;;31.40;20.88
29879;BME280;16752;53.364;-1.488;2022-08-19T14:04:43;100216.75;;;31.27;20.78
29879;BME280;16752;53.364;-1.488;2022-08-19T14:07:10;100221.59;;;31.25;21.38
29879;BME280;16752;53.364;-1.488;2022-08-19T14:09:39;100219.94;;;31.00;21.77
29879;BME280;16752;53.364;-1.488;2022-08-19T14:15:01;100220.78;;;30.78;22.35
29879;BME280;16752;53.364;-1.488;2022-08-19T14:17:54;100219.47;;;30.57;22.63
29879;BME280;16752;53.364;-1.488;2022-08-19T14:26:07;100219.25;;;30.23;23.18
29879;BME280;16752;53.364;-1.488;2022-08-19T14:28:37;100212.31;;;30.16;23.81
29879;BME280;16752;53.364;-1.488;2022-08-19T14:36:52;100227.53;;;30.10;24.46
29879;BME280;16752;53.364;-1.488;2022-08-19T14:44:58;100219.72;;;30.20;23.83
29879;BME280;16752;53.364;-1.488;2022-08-19T14:47:25;100228.03;;;30.30;23.79
29879;BME280;16752;53.364;-1.488;2022-08-19T14:50:10;100234.66;;;30.46;23.82
29879;BME280;16752;53.364;-1.488;2022-08-19T15:05:20;100233.84;;;30.92;23.00
29879;BME280;16752;53.364;-1.488;2022-08-19T15:25:40;100238.63;;;31.94;21.62
29879;BME280;16752;53.364;-1.488;2022-08-19T15:28:40;100230.63;;;31.30;21.97
29879;BME280;16752;53.364;-1.488;2022-08-19T15:36:53;100234.28;;;31.13;22.07
29879;BME280;16752;53.364;-1.488;2022-08-19T15:39:28;100226.22;;;31.41;21.73
29879;BME280;16752;53.364;-1.488;2022-08-19T15:42:31;100232.41;;;31.25;22.00
29879;BME280;16752;53.364;-1.488;2022-08-19T15:45:12;100236.06;;;31.07;22.49
29879;BME280;16752;53.364;-1.488;2022-08-19T15:51:08;100235.38;;;30.77;22.13
29879;BME280;16752;53.364;-1.488;2022-08-19T15:53:34;100240.03;;;30.34;22.71
29879;BME280;16752;53.364;-1.488;2022-08-19T15:56:06;100241.16;;;30.03;23.42
29879;BME280;16752;53.364;-1.488;2022-08-19T15:58:33;100239.88;;;30.06;23.96
29879;BME280;16752;53.364;-1.488;2022-08-19T16:01:39;100240.47;;;30.08;23.84
29879;BME280;16752;53.364;-1.488;2022-08-19T16:04:32;100249.06;;;30.17;24.01
29879;BME280;16752;53.364;-1.488;2022-08-19T16:07:31;100251.41;;;30.13;24.14
29879;BME280;16752;53.364;-1.488;2022-08-19T16:09:58;100251.84;;;30.10;24.19
29879;BME280;16752;53.364;-1.488;2022-08-19T16:15:16;100247.59;;;30.44;23.33
29879;BME280;16752;53.364;-1.488;2022-08-19T16:17:42;100246.31;;;30.70;23.90
29879;BME280;16752;53.364;-1.488;2022-08-19T16:20:08;100247.22;;;31.11;23.13
29879;BME280;16752;53.364;-1.488;2022-08-19T16:22:35;100247.56;;;31.14;22.93
29879;BME280;16752;53.364;-1.488;2022-08-19T16:25:04;100247.88;;;31.41;22.90
29879;BME280;16752;53.364;-1.488;2022-08-19T16:27:37;100248.28;;;31.73;22.14
29879;BME280;16752;53.364;-1.488;2022-08-19T16:30:10;100248.94;;;31.80;22.33
29879;BME280;16752;53.364;-1.488;2022-08-19T16:32:36;100240.16;;;31.73;21.84
29879;BME280;16752;53.364;-1.488;2022-08-19T16:35:18;100247.13;;;31.57;22.41
29879;BME280;16752;53.364;-1.488;2022-08-19T16:37:44;100247.28;;;31.39;22.32
29879;BME280;16752;53.364;-1.488;2022-08-19T17:06:22;100265.38;;;29.80;23.99
29879;BME280;16752;53.364;-1.488;2022-08-19T17:12:00;100273.06;;;29.46;24.72
29879;BME280;16752;53.364;-1.488;2022-08-19T17:20:24;100274.75;;;29.04;25.16
29879;BME280;16752;53.364;-1.488;2022-08-19T17:26:25;100263.16;;;29.04;25.24
29879;BME280;16752;53.364;-1.488;2022-08-19T19:08:12;100318.53;;;26.43;32.11
29879;BME280;16752;53.364;-1.488;2022-08-19T19:25:01;100337.03;;;26.05;32.37
29879;BME280;16752;53.364;-1.488;2022-08-19T20:30:36;100401.84;;;24.41;35.31
29879;BME280;16752;53.364;-1.488;2022-08-19T20:45:03;100405.19;;;24.13;36.16
29879;BME280;16752;53.364;-1.488;2022-08-19T20:47:35;100406.78;;;24.07;36.53
29879;BME280;16752;53.364;-1.488;2022-08-19T20:50:27;100401.78;;;24.04;36.44
29879;BME280;16752;53.364;-1.488;2022-08-19T20:52:57;100404.00;;;24.01;36.39
29879;BME280;16752;53.364;-1.488;2022-08-19T20:55:26;100408.72;;;23.99;36.46
29879;BME280;16752;53.364;-1.488;2022-08-19T20:58:17;100407.44;;;23.95;36.29
29879;BME280;16752;53.364;-1.488;2022-08-19T22:07:05;100422.53;;;23.29;37.60
29879;BME280;16752;53.364;-1.488;2022-08-19T22:09:42;100417.81;;;23.31;37.34
29879;BME280;16752;53.364;-1.488;2022-08-19T22:12:26;100415.78;;;23.33;37.30
29879;BME280;16752;53.364;-1.488;2022-08-19T22:15:21;100417.53;;;23.26;37.33
29879;BME280;16752;53.364;-1.488;2022-08-19T22:17:48;100418.19;;;23.28;37.55
29879;BME280;16752;53.364;-1.488;2022-08-19T22:20:22;100417.91;;;23.23;37.36
29879;BME280;16752;53.364;-1.488;2022-08-19T22:23:08;100418.72;;;23.23;37.77
29879;BME280;16752;53.364;-1.488;2022-08-19T22:25:48;100413.19;;;23.25;38.02
29879;BME280;16752;53.364;-1.488;2022-08-19T22:30:44;100408.38;;;23.58;37.50
29879;BME280;16752;53.364;-1.488;2022-08-19T22:33:13;100405.88;;;23.71;36.93
29879;BME280;16752;53.364;-1.488;2022-08-19T22:39:02;100411.03;;;24.02;36.53
29879;BME280;16752;53.364;-1.488;2022-08-19T22:44:29;100409.63;;;24.06;36.31
29879;BME280;16752;53.364;-1.488;2022-08-19T22:47:16;100401.88;;;24.11;36.21
29879;BME280;16752;53.364;-1.488;2022-08-19T22:55:33;100399.03;;;24.13;35.95
29879;BME280;16752;53.364;-1.488;2022-08-19T22:58:08;100391.63;;;24.15;35.73
29879;BME280;16752;53.364;-1.488;2022-08-19T23:00:34;100397.44;;;24.18;36.03
29879;BME280;16752;53.364;-1.488;2022-08-19T23:05:59;100407.75;;;24.21;35.54
29879;BME280;16752;53.364;-1.488;2022-08-19T23:11:17;100396.16;;;24.14;35.71
29879;BME280;16752;53.364;-1.488;2022-08-19T23:13:45;100402.97;;;24.17;35.62
29879;BME280;16752;53.364;-1.488;2022-08-19T23:16:18;100403.16;;;24.15;35.81
29879;BME280;16752;53.364;-1.488;2022-08-19T23:18:50;100401.13;;;24.17;35.65
29879;BME280;16752;53.364;-1.488;2022-08-19T23:30:02;100406.59;;;24.09;35.96
29879;BME280;16752;53.364;-1.488;2022-08-19T23:32:47;100405.59;;;24.10;36.04
29879;BME280;16752;53.364;-1.488;2022-08-19T23:35:23;100403.94;;;24.09;36.08
29879;BME280;16752;53.364;-1.488;2022-08-19T23:57:28;100382.28;;;23.74;37.67
